Kezdőlap
METAR-TAF:

METAR-TAF

Repülőterek :

Greeley-Weld County Airport

Greeley, Colorado, Amerikai Egyesült Államok

földrajzi szélesség: 40-26N, földrajzi hosszúság: 104-38W, magasság: 1420 m

Jelenlegi meteorológiai megfigyelések

A jelentés 27 perccel ezelõtt készült, 23:56 UTC
Déli szél 9 kt
Hőmérséklet 17°C
Páratartalom 19%
Légköri nyomás 1009 hPa
Látótávolság: 16.1 km
Derült ég

METAR: KGXY 042356Z AUTO 19009KT 10SM CLR 17/M07 A2979 RMK AO2 SLP093 T01671067 10178 20094 56008

Idő: 18:23 (00:23 UTC)


TAF: hiányzik

Meteorológiai megfigyelések és előrejelzések több, mint 4000 repülőtéren (METAR és TAF jelentéseket).

A térképen piros és sárga pontok jelzik az elérhető meteorológiai állomásokat.

Mozgassa az egeret a pont fölött, hogy megjelenjen az állomás neve.

Azután kattintson az időjárási megfigyelések és előrejelzések megtekintéséhez.

A térkép megváltoztatása: kattintson a fekete keresztel jelölt zöld gombra ráközelítéshez, a vonallal jelölt zöld gombra távolításhoz, vagy a zöld nyilakra a szomszédos térképek eléréséhez.


METAR-TAF: